CGYTI CYND-CYND
Flight info
| Callsign | CGYTI |
|---|---|
| Flight time | 2h 33m |
| Altitude | 5500 |
| Route | 453554N0751443W DCT CSD3 DCT CYJN 0010 CYJN DCT CYCC 0010 CYCC |
| Aircraft | C172/L-SG/C |
Departure
| Time | 2026-05-06 22:48 |
|---|---|
| Airport | Ottawa / Gatineau Airport (CYND) |
Arrival
| Time | 2026-05-07 01:21 |
|---|---|
| Airport | Ottawa / Gatineau Airport (CYND) |
| Time | Latitude | Longitude | Altitude | Speed | Heading |
|---|---|---|---|---|---|
| 2026-05-06 22:28 | 45.51898 | -75.56164 | 198 ft | 0 kts | 174° |
| 2026-05-06 22:35 | 45.51897 | -75.56164 | 198 ft | 2 kts | 164° |
| 2026-05-06 22:35 | 45.51895 | -75.56146 | 208 ft | 2 kts | 59° |
| 2026-05-06 22:36 | 45.51897 | -75.56143 | 206 ft | 0 kts | 39° |
| 2026-05-06 22:36 | 45.51911 | -75.56139 | 201 ft | 11 kts | 1° |
| 2026-05-06 22:36 | 45.51921 | -75.56112 | 202 ft | 0 kts | 170° |
| 2026-05-06 22:44 | 45.51918 | -75.56134 | 204 ft | 9 kts | 303° |
| 2026-05-06 22:44 | 45.51965 | -75.56179 | 203 ft | 7 kts | 319° |
| 2026-05-06 22:45 | 45.52015 | -75.56226 | 203 ft | 14 kts | 345° |
| 2026-05-06 22:45 | 45.52068 | -75.56147 | 201 ft | 17 kts | 75° |
| 2026-05-06 22:45 | 45.52113 | -75.55964 | 203 ft | 19 kts | 64° |
| 2026-05-06 22:45 | 45.52181 | -75.55878 | 211 ft | 0 kts | 350° |
| 2026-05-06 22:46 | 45.52195 | -75.55882 | 207 ft | 11 kts | 346° |
| 2026-05-06 22:46 | 45.52242 | -75.55957 | 211 ft | 13 kts | 269° |
| 2026-05-06 22:47 | 45.52182 | -75.56294 | 202 ft | 60 kts | 254° |
| 2026-05-06 22:47 | 45.52064 | -75.56977 | 298 ft | 78 kts | 249° |
| 2026-05-06 22:47 | 45.51948 | -75.57748 | 518 ft | 79 kts | 251° |
| 2026-05-06 22:47 | 45.51818 | -75.58533 | 660 ft | 83 kts | 247° |
| 2026-05-06 22:48 | 45.51667 | -75.59329 | 854 ft | 86 kts | 255° |
| 2026-05-06 22:48 | 45.51553 | -75.60153 | 1122 ft | 81 kts | 256° |
| 2026-05-06 22:48 | 45.51415 | -75.60888 | 1425 ft | 73 kts | 244° |
| 2026-05-06 22:48 | 45.51036 | -75.61353 | 1653 ft | 78 kts | 205° |
| 2026-05-06 22:49 | 45.50479 | -75.61270 | 1831 ft | 89 kts | 161° |
| 2026-05-06 22:49 | 45.49992 | -75.60652 | 1991 ft | 99 kts | 133° |
| 2026-05-06 22:49 | 45.49699 | -75.59756 | 2179 ft | 101 kts | 107° |
| 2026-05-06 22:49 | 45.49642 | -75.58737 | 2333 ft | 107 kts | 88° |
| 2026-05-06 22:50 | 45.49717 | -75.57616 | 2403 ft | 118 kts | 82° |
| 2026-05-06 22:50 | 45.49873 | -75.56458 | 2407 ft | 118 kts | 78° |
| 2026-05-06 22:50 | 45.50072 | -75.55299 | 2350 ft | 121 kts | 75° |
| 2026-05-06 22:50 | 45.50320 | -75.54156 | 2330 ft | 120 kts | 71° |
| 2026-05-06 22:51 | 45.50602 | -75.53045 | 2330 ft | 118 kts | 68° |
| 2026-05-06 22:51 | 45.50897 | -75.52013 | 2490 ft | 109 kts | 67° |
| 2026-05-06 22:51 | 45.51194 | -75.51047 | 2669 ft | 108 kts | 67° |
| 2026-05-06 22:51 | 45.51482 | -75.50064 | 2855 ft | 107 kts | 68° |
| 2026-05-06 22:52 | 45.51743 | -75.49077 | 3066 ft | 105 kts | 70° |
| 2026-05-06 22:52 | 45.51986 | -75.48096 | 3245 ft | 105 kts | 70° |
| 2026-05-06 22:52 | 45.52234 | -75.47107 | 3403 ft | 106 kts | 69° |
| 2026-05-06 22:52 | 45.52485 | -75.46116 | 3588 ft | 104 kts | 68° |
| 2026-05-06 22:53 | 45.52750 | -75.45158 | 3736 ft | 106 kts | 69° |
| 2026-05-06 22:53 | 45.53023 | -75.44202 | 3940 ft | 102 kts | 65° |
| 2026-05-06 22:53 | 45.53303 | -75.43271 | 4124 ft | 100 kts | 64° |
| 2026-05-06 22:53 | 45.53610 | -75.42383 | 4278 ft | 103 kts | 64° |
| 2026-05-06 22:54 | 45.53923 | -75.41486 | 4443 ft | 102 kts | 64° |
| 2026-05-06 22:54 | 45.54189 | -75.40545 | 4606 ft | 102 kts | 66° |
| 2026-05-06 22:54 | 45.54417 | -75.39592 | 4784 ft | 101 kts | 70° |
| 2026-05-06 22:54 | 45.54628 | -75.38622 | 4925 ft | 103 kts | 71° |
| 2026-05-06 22:55 | 45.54824 | -75.37640 | 5087 ft | 103 kts | 72° |
| 2026-05-06 22:55 | 45.55028 | -75.36667 | 5245 ft | 103 kts | 70° |
| 2026-05-06 22:55 | 45.55243 | -75.35687 | 5395 ft | 103 kts | 68° |
| 2026-05-06 22:55 | 45.55487 | -75.34672 | 5422 ft | 114 kts | 67° |
| 2026-05-06 22:56 | 45.55753 | -75.33635 | 5531 ft | 108 kts | 64° |
| 2026-05-06 22:56 | 45.56040 | -75.32621 | 5548 ft | 111 kts | 65° |
| 2026-05-06 22:56 | 45.56311 | -75.31583 | 5584 ft | 113 kts | 67° |
| 2026-05-06 22:56 | 45.56558 | -75.30496 | 5604 ft | 119 kts | 69° |
| 2026-05-06 22:57 | 45.56840 | -75.29350 | 5578 ft | 124 kts | 67° |
| 2026-05-06 22:57 | 45.57149 | -75.28179 | 5525 ft | 130 kts | 67° |
| 2026-05-06 22:57 | 45.57454 | -75.26965 | 5512 ft | 127 kts | 68° |
| 2026-05-06 22:57 | 45.57737 | -75.25794 | 5544 ft | 124 kts | 68° |
| 2026-05-06 22:58 | 45.58010 | -75.24646 | 5544 ft | 124 kts | 68° |
| 2026-05-06 22:58 | 45.58271 | -75.23475 | 5542 ft | 124 kts | 74° |
| 2026-05-06 22:58 | 45.58314 | -75.22245 | 5537 ft | 125 kts | 99° |
| 2026-05-06 22:58 | 45.58048 | -75.21057 | 5529 ft | 125 kts | 117° |
| 2026-05-06 22:59 | 45.57692 | -75.19949 | 5537 ft | 124 kts | 118° |
| 2026-05-06 22:59 | 45.57311 | -75.18837 | 5533 ft | 124 kts | 119° |
| 2026-05-06 22:59 | 45.56927 | -75.17732 | 5543 ft | 125 kts | 119° |
| 2026-05-06 22:59 | 45.56557 | -75.16613 | 5571 ft | 124 kts | 117° |
| 2026-05-06 23:00 | 45.56168 | -75.15482 | 5515 ft | 128 kts | 120° |
| 2026-05-06 23:00 | 45.55758 | -75.14371 | 5536 ft | 127 kts | 122° |
| 2026-05-06 23:00 | 45.55324 | -75.13260 | 5512 ft | 128 kts | 123° |
| 2026-05-06 23:00 | 45.54879 | -75.12177 | 5548 ft | 124 kts | 124° |
| 2026-05-06 23:01 | 45.54431 | -75.11103 | 5538 ft | 126 kts | 123° |
| 2026-05-06 23:01 | 45.53999 | -75.10027 | 5547 ft | 125 kts | 124° |
| 2026-05-06 23:01 | 45.53568 | -75.08954 | 5561 ft | 124 kts | 123° |
| 2026-05-06 23:01 | 45.53152 | -75.07887 | 5565 ft | 125 kts | 122° |
| 2026-05-06 23:02 | 45.52742 | -75.06794 | 5571 ft | 125 kts | 121° |
| 2026-05-06 23:02 | 45.52329 | -75.05703 | 5574 ft | 125 kts | 122° |
| 2026-05-06 23:02 | 45.51915 | -75.04608 | 5560 ft | 128 kts | 120° |
| 2026-05-06 23:02 | 45.51484 | -75.03474 | 5511 ft | 131 kts | 120° |
| 2026-05-06 23:03 | 45.51061 | -75.02348 | 5562 ft | 126 kts | 120° |
| 2026-05-06 23:03 | 45.50681 | -75.01209 | 5537 ft | 129 kts | 116° |
| 2026-05-06 23:03 | 45.50286 | -75.00052 | 5510 ft | 131 kts | 118° |
| 2026-05-06 23:03 | 45.49922 | -74.98862 | 5500 ft | 131 kts | 114° |
| 2026-05-06 23:04 | 45.49513 | -74.97699 | 5479 ft | 131 kts | 118° |
| 2026-05-06 23:04 | 45.49106 | -74.96568 | 5524 ft | 127 kts | 119° |
| 2026-05-06 23:04 | 45.48700 | -74.95447 | 5522 ft | 127 kts | 119° |
| 2026-05-06 23:04 | 45.48290 | -74.94316 | 5514 ft | 128 kts | 119° |
| 2026-05-06 23:05 | 45.47868 | -74.93199 | 5521 ft | 128 kts | 120° |
| 2026-05-06 23:05 | 45.47448 | -74.92086 | 5523 ft | 128 kts | 119° |
| 2026-05-06 23:05 | 45.47069 | -74.90962 | 5527 ft | 128 kts | 116° |
| 2026-05-06 23:05 | 45.46687 | -74.89814 | 5529 ft | 128 kts | 116° |
| 2026-05-06 23:06 | 45.46312 | -74.88665 | 5536 ft | 128 kts | 116° |
| 2026-05-06 23:06 | 45.45939 | -74.87512 | 5534 ft | 128 kts | 116° |
| 2026-05-06 23:06 | 45.45570 | -74.86358 | 5534 ft | 128 kts | 116° |
| 2026-05-06 23:06 | 45.45188 | -74.85208 | 5548 ft | 128 kts | 116° |
| 2026-05-06 23:07 | 45.44800 | -74.84069 | 5552 ft | 128 kts | 117° |
| 2026-05-06 23:07 | 45.44413 | -74.82922 | 5550 ft | 128 kts | 117° |
| 2026-05-06 23:07 | 45.44023 | -74.81788 | 5559 ft | 128 kts | 117° |
| 2026-05-06 23:07 | 45.43643 | -74.80660 | 5557 ft | 128 kts | 117° |
| 2026-05-06 23:08 | 45.43247 | -74.79514 | 5539 ft | 129 kts | 118° |
| 2026-05-06 23:08 | 45.42841 | -74.78368 | 5514 ft | 131 kts | 120° |
| 2026-05-06 23:08 | 45.42415 | -74.77219 | 5514 ft | 130 kts | 118° |
| 2026-05-06 23:08 | 45.42015 | -74.76074 | 5540 ft | 127 kts | 117° |
| 2026-05-06 23:09 | 45.41615 | -74.74948 | 5541 ft | 128 kts | 117° |
| 2026-05-06 23:09 | 45.41258 | -74.73787 | 5539 ft | 128 kts | 115° |
| 2026-05-06 23:09 | 45.40882 | -74.72638 | 5538 ft | 128 kts | 117° |
| 2026-05-06 23:09 | 45.40488 | -74.71517 | 5545 ft | 128 kts | 119° |
| 2026-05-06 23:10 | 45.40072 | -74.70410 | 5567 ft | 125 kts | 120° |
| 2026-05-06 23:10 | 45.39669 | -74.69306 | 5559 ft | 127 kts | 117° |
| 2026-05-06 23:10 | 45.39280 | -74.68180 | 5569 ft | 126 kts | 117° |
| 2026-05-06 23:10 | 45.38900 | -74.67056 | 5561 ft | 127 kts | 117° |
| 2026-05-06 23:11 | 45.38511 | -74.65932 | 5562 ft | 126 kts | 116° |
| 2026-05-06 23:11 | 45.38136 | -74.64805 | 5559 ft | 126 kts | 116° |
| 2026-05-06 23:11 | 45.37767 | -74.63671 | 5568 ft | 126 kts | 115° |
| 2026-05-06 23:11 | 45.37391 | -74.62540 | 5560 ft | 127 kts | 117° |
| 2026-05-06 23:12 | 45.36996 | -74.61417 | 5557 ft | 127 kts | 117° |
| 2026-05-06 23:12 | 45.36605 | -74.60290 | 5557 ft | 127 kts | 116° |
| 2026-05-06 23:12 | 45.36196 | -74.59149 | 5490 ft | 131 kts | 120° |
| 2026-05-06 23:12 | 45.35770 | -74.58025 | 5520 ft | 127 kts | 120° |
| 2026-05-06 23:13 | 45.35364 | -74.56934 | 5546 ft | 124 kts | 120° |
| 2026-05-06 23:13 | 45.34962 | -74.55853 | 5573 ft | 123 kts | 117° |
| 2026-05-06 23:13 | 45.34586 | -74.54764 | 5567 ft | 125 kts | 118° |
| 2026-05-06 23:13 | 45.34195 | -74.53644 | 5547 ft | 127 kts | 117° |
| 2026-05-06 23:14 | 45.33813 | -74.52519 | 5578 ft | 124 kts | 118° |
| 2026-05-06 23:14 | 45.33412 | -74.51440 | 5584 ft | 125 kts | 121° |
| 2026-05-06 23:14 | 45.32992 | -74.50354 | 5588 ft | 125 kts | 119° |
| 2026-05-06 23:14 | 45.32575 | -74.49260 | 5566 ft | 127 kts | 121° |
| 2026-05-06 23:15 | 45.32144 | -74.48166 | 5567 ft | 126 kts | 120° |
| 2026-05-06 23:15 | 45.31735 | -74.47054 | 5542 ft | 128 kts | 119° |
| 2026-05-06 23:15 | 45.31318 | -74.45944 | 5548 ft | 127 kts | 118° |
| 2026-05-06 23:15 | 45.30941 | -74.44816 | 5544 ft | 127 kts | 117° |
| 2026-05-06 23:16 | 45.30536 | -74.43701 | 5533 ft | 127 kts | 119° |
| 2026-05-06 23:16 | 45.30118 | -74.42588 | 5517 ft | 127 kts | 118° |
| 2026-05-06 23:16 | 45.29708 | -74.41472 | 5510 ft | 127 kts | 118° |
| 2026-05-06 23:16 | 45.29297 | -74.40359 | 5504 ft | 126 kts | 119° |
| 2026-05-06 23:17 | 45.28888 | -74.39263 | 5448 ft | 129 kts | 118° |
| 2026-05-06 23:17 | 45.28473 | -74.38130 | 5425 ft | 128 kts | 118° |
| 2026-05-06 23:17 | 45.28074 | -74.37017 | 5455 ft | 124 kts | 116° |
| 2026-05-06 23:17 | 45.27688 | -74.35956 | 5480 ft | 122 kts | 116° |
| 2026-05-06 23:18 | 45.27284 | -74.34879 | 5460 ft | 123 kts | 118° |
| 2026-05-06 23:18 | 45.26862 | -74.33829 | 5469 ft | 122 kts | 117° |
| 2026-05-06 23:18 | 45.26469 | -74.32763 | 5488 ft | 121 kts | 116° |
| 2026-05-06 23:18 | 45.26088 | -74.31692 | 5484 ft | 122 kts | 114° |
| 2026-05-06 23:19 | 45.25720 | -74.30611 | 5494 ft | 121 kts | 113° |
| 2026-05-06 23:19 | 45.25351 | -74.29537 | 5521 ft | 120 kts | 115° |
| 2026-05-06 23:19 | 45.24984 | -74.28475 | 5524 ft | 122 kts | 114° |
| 2026-05-06 23:19 | 45.24616 | -74.27374 | 5525 ft | 123 kts | 113° |
| 2026-05-06 23:20 | 45.24243 | -74.26250 | 5482 ft | 127 kts | 114° |
| 2026-05-06 23:20 | 45.23862 | -74.25133 | 5516 ft | 124 kts | 112° |
| 2026-05-06 23:20 | 45.23504 | -74.24012 | 5531 ft | 123 kts | 112° |
| 2026-05-06 23:20 | 45.23143 | -74.22905 | 5515 ft | 126 kts | 114° |
| 2026-05-06 23:21 | 45.22772 | -74.21797 | 5557 ft | 123 kts | 115° |
| 2026-05-06 23:21 | 45.22387 | -74.20715 | 5592 ft | 122 kts | 116° |
| 2026-05-06 23:21 | 45.22015 | -74.19630 | 5601 ft | 123 kts | 114° |
| 2026-05-06 23:21 | 45.21659 | -74.18555 | 5383 ft | 121 kts | 112° |
| 2026-05-06 23:22 | 45.21302 | -74.17454 | 5096 ft | 122 kts | 113° |
| 2026-05-06 23:22 | 45.20973 | -74.16360 | 4849 ft | 121 kts | 109° |
| 2026-05-06 23:22 | 45.20693 | -74.15241 | 4601 ft | 119 kts | 106° |
| 2026-05-06 23:22 | 45.20467 | -74.14129 | 4347 ft | 118 kts | 99° |
| 2026-05-06 23:23 | 45.20319 | -74.12986 | 4108 ft | 117 kts | 97° |
| 2026-05-06 23:23 | 45.20229 | -74.11851 | 3858 ft | 116 kts | 84° |
| 2026-05-06 23:23 | 45.20339 | -74.10730 | 3614 ft | 115 kts | 78° |
| 2026-05-06 23:23 | 45.20453 | -74.09589 | 3545 ft | 118 kts | 79° |
| 2026-05-06 23:24 | 45.20558 | -74.08419 | 3519 ft | 120 kts | 82° |
| 2026-05-06 23:24 | 45.20611 | -74.07643 | 3503 ft | 119 kts | 82° |
| 2026-05-06 23:24 | 45.20700 | -74.06471 | 3472 ft | 120 kts | 81° |
| 2026-05-06 23:24 | 45.20808 | -74.05294 | 3458 ft | 118 kts | 80° |
| 2026-05-06 23:25 | 45.20915 | -74.04161 | 3469 ft | 117 kts | 78° |
| 2026-05-06 23:25 | 45.21034 | -74.03043 | 3530 ft | 112 kts | 79° |
| 2026-05-06 23:25 | 45.21128 | -74.01942 | 3550 ft | 114 kts | 81° |
| 2026-05-06 23:25 | 45.21226 | -74.00822 | 3569 ft | 114 kts | 77° |
| 2026-05-06 23:26 | 45.21362 | -73.99689 | 3555 ft | 117 kts | 75° |
| 2026-05-06 23:26 | 45.21532 | -73.98548 | 3539 ft | 119 kts | 77° |
| 2026-05-06 23:26 | 45.21672 | -73.97377 | 3502 ft | 121 kts | 77° |
| 2026-05-06 23:26 | 45.21847 | -73.96232 | 3552 ft | 115 kts | 73° |
| 2026-05-06 23:27 | 45.21991 | -73.95099 | 3499 ft | 121 kts | 80° |
| 2026-05-06 23:27 | 45.22100 | -73.93919 | 3513 ft | 119 kts | 81° |
| 2026-05-06 23:27 | 45.22157 | -73.92763 | 3507 ft | 119 kts | 83° |
| 2026-05-06 23:27 | 45.22249 | -73.91599 | 3491 ft | 120 kts | 82° |
| 2026-05-06 23:28 | 45.22326 | -73.90423 | 3373 ft | 120 kts | 81° |
| 2026-05-06 23:28 | 45.22455 | -73.89235 | 3160 ft | 122 kts | 78° |
| 2026-05-06 23:28 | 45.22600 | -73.88062 | 2972 ft | 121 kts | 77° |
| 2026-05-06 23:28 | 45.22753 | -73.86884 | 2766 ft | 121 kts | 77° |
| 2026-05-06 23:29 | 45.22914 | -73.85717 | 2575 ft | 121 kts | 77° |
| 2026-05-06 23:29 | 45.23056 | -73.84535 | 2395 ft | 121 kts | 80° |
| 2026-05-06 23:29 | 45.23189 | -73.83358 | 2207 ft | 121 kts | 81° |
| 2026-05-06 23:29 | 45.23330 | -73.82165 | 2051 ft | 125 kts | 80° |
| 2026-05-06 23:30 | 45.23472 | -73.80954 | 2028 ft | 124 kts | 81° |
| 2026-05-06 23:30 | 45.23615 | -73.79743 | 2000 ft | 123 kts | 79° |
| 2026-05-06 23:30 | 45.23761 | -73.78587 | 2058 ft | 117 kts | 79° |
| 2026-05-06 23:30 | 45.23929 | -73.77459 | 2082 ft | 116 kts | 78° |
| 2026-05-06 23:31 | 45.24083 | -73.76327 | 2073 ft | 119 kts | 78° |
| 2026-05-06 23:31 | 45.24268 | -73.75172 | 2054 ft | 120 kts | 76° |
| 2026-05-06 23:31 | 45.24447 | -73.74023 | 2053 ft | 121 kts | 80° |
| 2026-05-06 23:31 | 45.24596 | -73.72848 | 2051 ft | 120 kts | 79° |
| 2026-05-06 23:32 | 45.24745 | -73.71687 | 2066 ft | 118 kts | 79° |
| 2026-05-06 23:32 | 45.24877 | -73.70529 | 2062 ft | 119 kts | 81° |
| 2026-05-06 23:32 | 45.25007 | -73.69376 | 2079 ft | 118 kts | 81° |
| 2026-05-06 23:32 | 45.25139 | -73.68234 | 2123 ft | 116 kts | 79° |
| 2026-05-06 23:33 | 45.25277 | -73.67090 | 2106 ft | 119 kts | 78° |
| 2026-05-06 23:33 | 45.25475 | -73.65938 | 2044 ft | 124 kts | 77° |
| 2026-05-06 23:33 | 45.25638 | -73.64757 | 2071 ft | 121 kts | 79° |
| 2026-05-06 23:33 | 45.25769 | -73.63602 | 2080 ft | 120 kts | 81° |
| 2026-05-06 23:34 | 45.25894 | -73.62431 | 2082 ft | 120 kts | 81° |
| 2026-05-06 23:34 | 45.26052 | -73.61269 | 2075 ft | 121 kts | 80° |
| 2026-05-06 23:34 | 45.26173 | -73.60067 | 2043 ft | 123 kts | 83° |
| 2026-05-06 23:34 | 45.26274 | -73.58875 | 2045 ft | 121 kts | 83° |
| 2026-05-06 23:35 | 45.26397 | -73.57692 | 2059 ft | 118 kts | 81° |
| 2026-05-06 23:35 | 45.26559 | -73.56567 | 2086 ft | 117 kts | 73° |
| 2026-05-06 23:35 | 45.26733 | -73.55437 | 2088 ft | 117 kts | 79° |
| 2026-05-06 23:35 | 45.26865 | -73.54291 | 2127 ft | 117 kts | 79° |
| 2026-05-06 23:36 | 45.26995 | -73.53133 | 2117 ft | 121 kts | 80° |
| 2026-05-06 23:36 | 45.27140 | -73.51969 | 2145 ft | 120 kts | 79° |
| 2026-05-06 23:36 | 45.27279 | -73.50808 | 2196 ft | 117 kts | 78° |
| 2026-05-06 23:36 | 45.27435 | -73.49657 | 2176 ft | 122 kts | 79° |
| 2026-05-06 23:37 | 45.27585 | -73.48493 | 2183 ft | 122 kts | 76° |
| 2026-05-06 23:37 | 45.27777 | -73.47312 | 2158 ft | 122 kts | 75° |
| 2026-05-06 23:37 | 45.28006 | -73.46155 | 2119 ft | 122 kts | 70° |
| 2026-05-06 23:37 | 45.28226 | -73.44982 | 2077 ft | 124 kts | 77° |
| 2026-05-06 23:38 | 45.28402 | -73.43804 | 2079 ft | 121 kts | 76° |
| 2026-05-06 23:38 | 45.28595 | -73.42642 | 2028 ft | 119 kts | 77° |
| 2026-05-06 23:38 | 45.28721 | -73.41464 | 1794 ft | 121 kts | 83° |
| 2026-05-06 23:38 | 45.28837 | -73.40300 | 1662 ft | 116 kts | 82° |
| 2026-05-06 23:39 | 45.28956 | -73.39168 | 1520 ft | 116 kts | 81° |
| 2026-05-06 23:39 | 45.29097 | -73.38055 | 1416 ft | 113 kts | 80° |
| 2026-05-06 23:39 | 45.29197 | -73.36982 | 1336 ft | 104 kts | 86° |
| 2026-05-06 23:39 | 45.29236 | -73.36012 | 1278 ft | 95 kts | 90° |
| 2026-05-06 23:40 | 45.29238 | -73.35105 | 1201 ft | 89 kts | 91° |
| 2026-05-06 23:40 | 45.29248 | -73.34215 | 1107 ft | 91 kts | 90° |
| 2026-05-06 23:40 | 45.29252 | -73.33336 | 1054 ft | 87 kts | 91° |
| 2026-05-06 23:40 | 45.29259 | -73.32495 | 949 ft | 81 kts | 90° |
| 2026-05-06 23:41 | 45.29267 | -73.31707 | 821 ft | 78 kts | 92° |
| 2026-05-06 23:41 | 45.29265 | -73.30949 | 665 ft | 79 kts | 93° |
| 2026-05-06 23:41 | 45.29257 | -73.30163 | 495 ft | 79 kts | 93° |
| 2026-05-06 23:41 | 45.29256 | -73.29405 | 324 ft | 76 kts | 89° |
| 2026-05-06 23:42 | 45.29255 | -73.28646 | 142 ft | 74 kts | 90° |
| 2026-05-06 23:42 | 45.29254 | -73.28068 | 131 ft | 44 kts | 90° |
| 2026-05-06 23:42 | 45.29254 | -73.27732 | 131 ft | 27 kts | 89° |
| 2026-05-06 23:42 | 45.29267 | -73.27585 | 131 ft | 7 kts | 0° |
| 2026-05-06 23:43 | 45.29340 | -73.27593 | 131 ft | 11 kts | 359° |
| 2026-05-06 23:43 | 45.29405 | -73.27591 | 132 ft | 8 kts | 1° |
| 2026-05-06 23:43 | 45.29485 | -73.27594 | 132 ft | 19 kts | 359° |
| 2026-05-06 23:43 | 45.29640 | -73.27593 | 130 ft | 22 kts | 360° |
| 2026-05-06 23:44 | 45.29764 | -73.27613 | 130 ft | 11 kts | 297° |
| 2026-05-06 23:44 | 45.29767 | -73.27727 | 129 ft | 14 kts | 272° |
| 2026-05-06 23:44 | 45.29787 | -73.27862 | 126 ft | 13 kts | 284° |
| 2026-05-06 23:44 | 45.29807 | -73.27970 | 129 ft | 10 kts | 285° |
| 2026-05-06 23:45 | 45.29786 | -73.28071 | 130 ft | 10 kts | 240° |
| 2026-05-06 23:45 | 45.29776 | -73.28082 | 130 ft | 0 kts | 148° |
| 2026-05-06 23:53 | 45.29775 | -73.28081 | 130 ft | 1 kts | 148° |
| 2026-05-06 23:53 | 45.29755 | -73.28062 | 129 ft | 4 kts | 140° |
| 2026-05-06 23:53 | 45.29734 | -73.28025 | 130 ft | 7 kts | 170° |
| 2026-05-06 23:53 | 45.29714 | -73.28040 | 130 ft | 4 kts | 211° |
| 2026-05-06 23:54 | 45.29712 | -73.28042 | 130 ft | 0 kts | 215° |
| 2026-05-06 23:56 | 45.29708 | -73.28051 | 130 ft | 6 kts | 245° |
| 2026-05-06 23:57 | 45.29648 | -73.28151 | 131 ft | 15 kts | 226° |
| 2026-05-06 23:57 | 45.29582 | -73.28246 | 131 ft | 13 kts | 224° |
| 2026-05-06 23:57 | 45.29504 | -73.28355 | 132 ft | 17 kts | 225° |
| 2026-05-06 23:57 | 45.29428 | -73.28460 | 132 ft | 14 kts | 217° |
| 2026-05-06 23:58 | 45.29349 | -73.28500 | 132 ft | 11 kts | 190° |
| 2026-05-06 23:58 | 45.29278 | -73.28510 | 131 ft | 12 kts | 156° |
| 2026-05-06 23:58 | 45.29257 | -73.28388 | 132 ft | 19 kts | 92° |
| 2026-05-06 23:58 | 45.29258 | -73.28217 | 132 ft | 17 kts | 91° |
| 2026-05-06 23:59 | 45.29254 | -73.28065 | 132 ft | 14 kts | 91° |
| 2026-05-06 23:59 | 45.29254 | -73.27906 | 133 ft | 18 kts | 90° |
| 2026-05-06 23:59 | 45.29253 | -73.27731 | 132 ft | 20 kts | 92° |
| 2026-05-06 23:59 | 45.29247 | -73.27536 | 131 ft | 19 kts | 91° |
| 2026-05-07 00:00 | 45.29258 | -73.27435 | 135 ft | 5 kts | 289° |
| 2026-05-07 00:00 | 45.29254 | -73.27460 | 130 ft | 0 kts | 272° |
| 2026-05-07 00:01 | 45.29255 | -73.27648 | 131 ft | 45 kts | 270° |
| 2026-05-07 00:01 | 45.29253 | -73.28290 | 178 ft | 77 kts | 270° |
| 2026-05-07 00:02 | 45.29260 | -73.29059 | 415 ft | 76 kts | 270° |
| 2026-05-07 00:02 | 45.29257 | -73.29832 | 628 ft | 77 kts | 271° |
| 2026-05-07 00:02 | 45.29217 | -73.30630 | 787 ft | 86 kts | 253° |
| 2026-05-07 00:02 | 45.29056 | -73.31440 | 1029 ft | 84 kts | 263° |
| 2026-05-07 00:03 | 45.28968 | -73.32240 | 1284 ft | 85 kts | 262° |
| 2026-05-07 00:03 | 45.28889 | -73.33056 | 1524 ft | 84 kts | 262° |
| 2026-05-07 00:03 | 45.28810 | -73.33901 | 1694 ft | 89 kts | 266° |
| 2026-05-07 00:03 | 45.28731 | -73.34747 | 1953 ft | 84 kts | 262° |
| 2026-05-07 00:04 | 45.28632 | -73.35578 | 2152 ft | 85 kts | 264° |
| 2026-05-07 00:04 | 45.28530 | -73.36396 | 2389 ft | 84 kts | 262° |
| 2026-05-07 00:04 | 45.28417 | -73.37197 | 2585 ft | 84 kts | 263° |
| 2026-05-07 00:04 | 45.28309 | -73.38024 | 2761 ft | 86 kts | 263° |
| 2026-05-07 00:05 | 45.28185 | -73.38856 | 2957 ft | 86 kts | 263° |
| 2026-05-07 00:05 | 45.28067 | -73.39693 | 3155 ft | 86 kts | 266° |
| 2026-05-07 00:05 | 45.27978 | -73.40540 | 3333 ft | 87 kts | 267° |
| 2026-05-07 00:05 | 45.27899 | -73.41388 | 3516 ft | 87 kts | 269° |
| 2026-05-07 00:06 | 45.27818 | -73.42245 | 3685 ft | 88 kts | 270° |
| 2026-05-07 00:06 | 45.27751 | -73.43099 | 3872 ft | 87 kts | 266° |
| 2026-05-07 00:06 | 45.27637 | -73.43964 | 4027 ft | 90 kts | 265° |
| 2026-05-07 00:06 | 45.27547 | -73.44836 | 4198 ft | 89 kts | 269° |
| 2026-05-07 00:07 | 45.27471 | -73.45701 | 4363 ft | 90 kts | 270° |
| 2026-05-07 00:07 | 45.27406 | -73.46604 | 4460 ft | 96 kts | 270° |
| 2026-05-07 00:07 | 45.27339 | -73.47546 | 4546 ft | 96 kts | 272° |
| 2026-05-07 00:07 | 45.27317 | -73.48538 | 4526 ft | 102 kts | 274° |
| 2026-05-07 00:08 | 45.27263 | -73.49532 | 4575 ft | 101 kts | 269° |
| 2026-05-07 00:08 | 45.27172 | -73.50534 | 4571 ft | 104 kts | 269° |
| 2026-05-07 00:08 | 45.27081 | -73.51569 | 4550 ft | 108 kts | 269° |
| 2026-05-07 00:08 | 45.26972 | -73.52624 | 4554 ft | 107 kts | 266° |
| 2026-05-07 00:09 | 45.26856 | -73.53686 | 4502 ft | 110 kts | 268° |
| 2026-05-07 00:09 | 45.26741 | -73.54754 | 4480 ft | 110 kts | 266° |
| 2026-05-07 00:09 | 45.26661 | -73.55456 | 4477 ft | 108 kts | 266° |
| 2026-05-07 00:09 | 45.26556 | -73.56510 | 4450 ft | 109 kts | 268° |
| 2026-05-07 00:10 | 45.26445 | -73.57569 | 4436 ft | 108 kts | 268° |
| 2026-05-07 00:10 | 45.26352 | -73.58623 | 4407 ft | 108 kts | 268° |
| 2026-05-07 00:10 | 45.26291 | -73.59662 | 4427 ft | 104 kts | 269° |
| 2026-05-07 00:10 | 45.26220 | -73.60697 | 4401 ft | 105 kts | 269° |
| 2026-05-07 00:11 | 45.26152 | -73.61692 | 4446 ft | 101 kts | 268° |
| 2026-05-07 00:11 | 45.26073 | -73.62692 | 4438 ft | 101 kts | 268° |
| 2026-05-07 00:11 | 45.25992 | -73.63678 | 4441 ft | 102 kts | 266° |
| 2026-05-07 00:11 | 45.25872 | -73.64676 | 4448 ft | 101 kts | 264° |
| 2026-05-07 00:12 | 45.25754 | -73.65653 | 4466 ft | 100 kts | 267° |
| 2026-05-07 00:12 | 45.25663 | -73.66620 | 4489 ft | 99 kts | 267° |
| 2026-05-07 00:12 | 45.25578 | -73.67591 | 4498 ft | 100 kts | 268° |
| 2026-05-07 00:12 | 45.25495 | -73.68565 | 4507 ft | 100 kts | 267° |
| 2026-05-07 00:13 | 45.25398 | -73.69544 | 4514 ft | 101 kts | 266° |
| 2026-05-07 00:13 | 45.25292 | -73.70525 | 4524 ft | 101 kts | 265° |
| 2026-05-07 00:13 | 45.25190 | -73.71508 | 4537 ft | 101 kts | 267° |
| 2026-05-07 00:13 | 45.25112 | -73.72499 | 4531 ft | 102 kts | 267° |
| 2026-05-07 00:14 | 45.25027 | -73.73501 | 4515 ft | 103 kts | 267° |
| 2026-05-07 00:14 | 45.24944 | -73.74501 | 4529 ft | 101 kts | 267° |
| 2026-05-07 00:14 | 45.24850 | -73.75497 | 4521 ft | 103 kts | 266° |
| 2026-05-07 00:14 | 45.24738 | -73.76509 | 4481 ft | 105 kts | 267° |
| 2026-05-07 00:15 | 45.24635 | -73.77484 | 4582 ft | 97 kts | 265° |
| 2026-05-07 00:15 | 45.24536 | -73.78462 | 4540 ft | 102 kts | 269° |
| 2026-05-07 00:15 | 45.24446 | -73.79471 | 4507 ft | 105 kts | 266° |
| 2026-05-07 00:15 | 45.24330 | -73.80482 | 4511 ft | 104 kts | 264° |
| 2026-05-07 00:16 | 45.24202 | -73.81492 | 4500 ft | 104 kts | 264° |
| 2026-05-07 00:16 | 45.24061 | -73.82478 | 4528 ft | 102 kts | 264° |
| 2026-05-07 00:16 | 45.23918 | -73.83477 | 4504 ft | 103 kts | 264° |
| 2026-05-07 00:16 | 45.23787 | -73.84478 | 4496 ft | 104 kts | 262° |
| 2026-05-07 00:17 | 45.23560 | -73.85464 | 4467 ft | 106 kts | 259° |
| 2026-05-07 00:17 | 45.23385 | -73.86418 | 4573 ft | 97 kts | 262° |
| 2026-05-07 00:17 | 45.23265 | -73.87384 | 4531 ft | 102 kts | 267° |
| 2026-05-07 00:17 | 45.23184 | -73.88415 | 4463 ft | 106 kts | 269° |
| 2026-05-07 00:18 | 45.23109 | -73.89432 | 4492 ft | 102 kts | 266° |
| 2026-05-07 00:18 | 45.22996 | -73.90428 | 4497 ft | 102 kts | 265° |
| 2026-05-07 00:18 | 45.22884 | -73.91423 | 4503 ft | 102 kts | 264° |
| 2026-05-07 00:18 | 45.22764 | -73.92425 | 4479 ft | 104 kts | 265° |
| 2026-05-07 00:19 | 45.22660 | -73.93442 | 4449 ft | 105 kts | 266° |
| 2026-05-07 00:19 | 45.22591 | -73.94464 | 4471 ft | 103 kts | 270° |
| 2026-05-07 00:19 | 45.22541 | -73.95499 | 4389 ft | 108 kts | 270° |
| 2026-05-07 00:19 | 45.22499 | -73.96534 | 4429 ft | 102 kts | 270° |
| 2026-05-07 00:20 | 45.22456 | -73.97535 | 4441 ft | 102 kts | 270° |
| 2026-05-07 00:20 | 45.22433 | -73.98554 | 4402 ft | 104 kts | 273° |
| 2026-05-07 00:20 | 45.22419 | -73.99558 | 4429 ft | 102 kts | 273° |
| 2026-05-07 00:20 | 45.22445 | -74.00577 | 4397 ft | 103 kts | 277° |
| 2026-05-07 00:21 | 45.22478 | -74.01575 | 4228 ft | 100 kts | 274° |
| 2026-05-07 00:21 | 45.22484 | -74.02555 | 3973 ft | 99 kts | 272° |
| 2026-05-07 00:21 | 45.22476 | -74.03517 | 3738 ft | 97 kts | 272° |
| 2026-05-07 00:21 | 45.22473 | -74.04478 | 3484 ft | 97 kts | 274° |
| 2026-05-07 00:22 | 45.22497 | -74.05433 | 3239 ft | 97 kts | 276° |
| 2026-05-07 00:22 | 45.22539 | -74.06385 | 2987 ft | 96 kts | 275° |
| 2026-05-07 00:22 | 45.22579 | -74.07328 | 2787 ft | 95 kts | 275° |
| 2026-05-07 00:22 | 45.22604 | -74.08289 | 2617 ft | 102 kts | 272° |
| 2026-05-07 00:23 | 45.22591 | -74.09302 | 2515 ft | 104 kts | 269° |
| 2026-05-07 00:23 | 45.22567 | -74.10310 | 2481 ft | 100 kts | 269° |
| 2026-05-07 00:23 | 45.22542 | -74.11284 | 2458 ft | 97 kts | 269° |
| 2026-05-07 00:23 | 45.22524 | -74.12233 | 2455 ft | 97 kts | 270° |
| 2026-05-07 00:24 | 45.22473 | -74.13204 | 2432 ft | 99 kts | 265° |
| 2026-05-07 00:24 | 45.22394 | -74.14160 | 2448 ft | 97 kts | 266° |
| 2026-05-07 00:24 | 45.22332 | -74.15084 | 2490 ft | 94 kts | 267° |
| 2026-05-07 00:24 | 45.22275 | -74.16023 | 2520 ft | 94 kts | 265° |
| 2026-05-07 00:25 | 45.22189 | -74.16945 | 2547 ft | 95 kts | 265° |
| 2026-05-07 00:25 | 45.22134 | -74.17868 | 2594 ft | 93 kts | 268° |
| 2026-05-07 00:25 | 45.22108 | -74.18794 | 2605 ft | 94 kts | 270° |
| 2026-05-07 00:25 | 45.22055 | -74.19709 | 2606 ft | 95 kts | 265° |
| 2026-05-07 00:26 | 45.21978 | -74.20654 | 2613 ft | 97 kts | 266° |
| 2026-05-07 00:26 | 45.21884 | -74.21594 | 2624 ft | 98 kts | 264° |
| 2026-05-07 00:26 | 45.21795 | -74.22548 | 2620 ft | 98 kts | 264° |
| 2026-05-07 00:26 | 45.21710 | -74.23504 | 2632 ft | 97 kts | 266° |
| 2026-05-07 00:27 | 45.21645 | -74.24450 | 2653 ft | 96 kts | 268° |
| 2026-05-07 00:27 | 45.21596 | -74.25380 | 2688 ft | 94 kts | 266° |
| 2026-05-07 00:27 | 45.21538 | -74.26324 | 2676 ft | 96 kts | 267° |
| 2026-05-07 00:27 | 45.21473 | -74.27289 | 2616 ft | 101 kts | 266° |
| 2026-05-07 00:28 | 45.21404 | -74.28249 | 2640 ft | 97 kts | 267° |
| 2026-05-07 00:28 | 45.21341 | -74.29202 | 2642 ft | 97 kts | 266° |
| 2026-05-07 00:28 | 45.21307 | -74.30169 | 2616 ft | 99 kts | 269° |
| 2026-05-07 00:28 | 45.21278 | -74.31147 | 2598 ft | 99 kts | 270° |
| 2026-05-07 00:29 | 45.21191 | -74.32108 | 2584 ft | 99 kts | 260° |
| 2026-05-07 00:29 | 45.20978 | -74.33042 | 2573 ft | 100 kts | 252° |
| 2026-05-07 00:30 | 45.20201 | -74.35755 | 2587 ft | 97 kts | 251° |
| 2026-05-07 00:30 | 45.19941 | -74.36654 | 2539 ft | 100 kts | 251° |
| 2026-05-07 00:30 | 45.19647 | -74.37561 | 2517 ft | 101 kts | 244° |
| 2026-05-07 00:30 | 45.19256 | -74.38391 | 2521 ft | 101 kts | 239° |
| 2026-05-07 00:31 | 45.18858 | -74.39196 | 2531 ft | 99 kts | 240° |
| 2026-05-07 00:31 | 45.18479 | -74.40012 | 2536 ft | 100 kts | 241° |
| 2026-05-07 00:31 | 45.18119 | -74.40862 | 2533 ft | 100 kts | 243° |
| 2026-05-07 00:31 | 45.17755 | -74.41685 | 2568 ft | 98 kts | 242° |
| 2026-05-07 00:32 | 45.17395 | -74.42489 | 2628 ft | 97 kts | 241° |
| 2026-05-07 00:32 | 45.16998 | -74.43291 | 2587 ft | 103 kts | 238° |
| 2026-05-07 00:32 | 45.16588 | -74.44095 | 2629 ft | 99 kts | 237° |
| 2026-05-07 00:32 | 45.16172 | -74.44869 | 2639 ft | 99 kts | 239° |
| 2026-05-07 00:33 | 45.15791 | -74.45676 | 2647 ft | 98 kts | 242° |
| 2026-05-07 00:33 | 45.15438 | -74.46508 | 2621 ft | 101 kts | 244° |
| 2026-05-07 00:33 | 45.15083 | -74.47358 | 2645 ft | 99 kts | 243° |
| 2026-05-07 00:33 | 45.14720 | -74.48163 | 2693 ft | 95 kts | 241° |
| 2026-05-07 00:34 | 45.14357 | -74.48953 | 2620 ft | 96 kts | 241° |
| 2026-05-07 00:34 | 45.13996 | -74.49782 | 2471 ft | 99 kts | 241° |
| 2026-05-07 00:34 | 45.13627 | -74.50595 | 2324 ft | 101 kts | 242° |
| 2026-05-07 00:34 | 45.13266 | -74.51454 | 2225 ft | 98 kts | 242° |
| 2026-05-07 00:35 | 45.12913 | -74.52249 | 2166 ft | 95 kts | 240° |
| 2026-05-07 00:35 | 45.12553 | -74.53051 | 2030 ft | 98 kts | 241° |
| 2026-05-07 00:35 | 45.12208 | -74.53880 | 1911 ft | 98 kts | 242° |
| 2026-05-07 00:35 | 45.11864 | -74.54697 | 1848 ft | 94 kts | 240° |
| 2026-05-07 00:36 | 45.11496 | -74.55469 | 1745 ft | 96 kts | 232° |
| 2026-05-07 00:36 | 45.11003 | -74.56085 | 1699 ft | 95 kts | 217° |
| 2026-05-07 00:36 | 45.10412 | -74.56478 | 1733 ft | 90 kts | 205° |
| 2026-05-07 00:36 | 45.09781 | -74.56676 | 1680 ft | 98 kts | 188° |
| 2026-05-07 00:37 | 45.09102 | -74.56474 | 1651 ft | 100 kts | 174° |
| 2026-05-07 00:37 | 45.08418 | -74.56393 | 1657 ft | 96 kts | 184° |
| 2026-05-07 00:37 | 45.07831 | -74.56609 | 1715 ft | 84 kts | 231° |
| 2026-05-07 00:37 | 45.07875 | -74.57342 | 1746 ft | 89 kts | 322° |
| 2026-05-07 00:38 | 45.08506 | -74.57256 | 1808 ft | 96 kts | 12° |
| 2026-05-07 00:38 | 45.09162 | -74.56933 | 1787 ft | 103 kts | 17° |
| 2026-05-07 00:38 | 45.09828 | -74.56587 | 1713 ft | 103 kts | 14° |
| 2026-05-07 00:38 | 45.10515 | -74.56268 | 1567 ft | 103 kts | 11° |
| 2026-05-07 00:39 | 45.11148 | -74.56383 | 1412 ft | 91 kts | 314° |
| 2026-05-07 00:39 | 45.11293 | -74.57174 | 1228 ft | 88 kts | 240° |
| 2026-05-07 00:39 | 45.10746 | -74.57372 | 1226 ft | 92 kts | 167° |
| 2026-05-07 00:39 | 45.10130 | -74.57106 | 1203 ft | 95 kts | 171° |
| 2026-05-07 00:40 | 45.09503 | -74.56887 | 1197 ft | 92 kts | 175° |
| 2026-05-07 00:40 | 45.08894 | -74.56735 | 1232 ft | 87 kts | 175° |
| 2026-05-07 00:40 | 45.08305 | -74.56456 | 1240 ft | 93 kts | 146° |
| 2026-05-07 00:40 | 45.08074 | -74.55613 | 1256 ft | 99 kts | 101° |
| 2026-05-07 00:41 | 45.08023 | -74.54645 | 1235 ft | 93 kts | 95° |
| 2026-05-07 00:41 | 45.08070 | -74.53779 | 1231 ft | 89 kts | 75° |
| 2026-05-07 00:41 | 45.08446 | -74.53097 | 1117 ft | 90 kts | 21° |
| 2026-05-07 00:41 | 45.09049 | -74.53105 | 1011 ft | 86 kts | 345° |
| 2026-05-07 00:42 | 45.09550 | -74.53488 | 882 ft | 82 kts | 302° |
| 2026-05-07 00:42 | 45.09577 | -74.54208 | 709 ft | 70 kts | 252° |
| 2026-05-07 00:42 | 45.09471 | -74.54862 | 487 ft | 67 kts | 257° |
| 2026-05-07 00:42 | 45.09391 | -74.55523 | 323 ft | 71 kts | 266° |
| 2026-05-07 00:43 | 45.09327 | -74.56189 | 174 ft | 61 kts | 261° |
| 2026-05-07 00:43 | 45.09283 | -74.56611 | 171 ft | 21 kts | 263° |
| 2026-05-07 00:43 | 45.09275 | -74.56661 | 171 ft | 9 kts | 91° |
| 2026-05-07 00:43 | 45.09296 | -74.56432 | 172 ft | 13 kts | 98° |
| 2026-05-07 00:44 | 45.09223 | -74.56421 | 172 ft | 6 kts | 172° |
| 2026-05-07 00:44 | 45.09203 | -74.56418 | 172 ft | 0 kts | 174° |
| 2026-05-07 00:44 | 45.09189 | -74.56417 | 173 ft | 7 kts | 182° |
| 2026-05-07 00:44 | 45.09158 | -74.56429 | 173 ft | 0 kts | 81° |
| 2026-05-07 00:47 | 45.09191 | -74.56411 | 172 ft | 13 kts | 341° |
| 2026-05-07 00:47 | 45.09227 | -74.56422 | 172 ft | 0 kts | 349° |
| 2026-05-07 00:48 | 45.09242 | -74.56423 | 172 ft | 12 kts | 355° |
| 2026-05-07 00:48 | 45.09299 | -74.56332 | 173 ft | 19 kts | 80° |
| 2026-05-07 00:48 | 45.09316 | -74.56149 | 168 ft | 12 kts | 70° |
| 2026-05-07 00:48 | 45.09323 | -74.56196 | 170 ft | 8 kts | 259° |
| 2026-05-07 00:49 | 45.09292 | -74.56507 | 171 ft | 58 kts | 262° |
| 2026-05-07 00:49 | 45.09223 | -74.57207 | 270 ft | 79 kts | 261° |
| 2026-05-07 00:49 | 45.09166 | -74.58002 | 494 ft | 83 kts | 260° |
| 2026-05-07 00:49 | 45.09078 | -74.58776 | 757 ft | 82 kts | 257° |
| 2026-05-07 00:50 | 45.08964 | -74.59567 | 1019 ft | 80 kts | 256° |
| 2026-05-07 00:50 | 45.08859 | -74.60322 | 1324 ft | 76 kts | 257° |
| 2026-05-07 00:50 | 45.08850 | -74.61072 | 1578 ft | 77 kts | 278° |
| 2026-05-07 00:50 | 45.09034 | -74.61775 | 1822 ft | 78 kts | 291° |
| 2026-05-07 00:51 | 45.09329 | -74.62422 | 2059 ft | 78 kts | 299° |
| 2026-05-07 00:51 | 45.09615 | -74.63066 | 2282 ft | 79 kts | 304° |
| 2026-05-07 00:51 | 45.09932 | -74.63694 | 2510 ft | 78 kts | 300° |
| 2026-05-07 00:51 | 45.10279 | -74.64305 | 2725 ft | 80 kts | 307° |
| 2026-05-07 00:52 | 45.10631 | -74.64896 | 2959 ft | 79 kts | 307° |
| 2026-05-07 00:52 | 45.10959 | -74.65510 | 3200 ft | 76 kts | 303° |
| 2026-05-07 00:52 | 45.11273 | -74.66126 | 3396 ft | 78 kts | 304° |
| 2026-05-07 00:52 | 45.11590 | -74.66744 | 3609 ft | 77 kts | 303° |
| 2026-05-07 00:53 | 45.11907 | -74.67368 | 3804 ft | 78 kts | 303° |
| 2026-05-07 00:53 | 45.12218 | -74.67994 | 4008 ft | 78 kts | 306° |
| 2026-05-07 00:53 | 45.12552 | -74.68600 | 4198 ft | 78 kts | 307° |
| 2026-05-07 00:53 | 45.12885 | -74.69213 | 4383 ft | 78 kts | 303° |
| 2026-05-07 00:54 | 45.13213 | -74.69886 | 4470 ft | 90 kts | 302° |
| 2026-05-07 00:54 | 45.13569 | -74.70650 | 4540 ft | 94 kts | 302° |
| 2026-05-07 00:54 | 45.13940 | -74.71465 | 4497 ft | 102 kts | 301° |
| 2026-05-07 00:54 | 45.14200 | -74.72038 | 4431 ft | 106 kts | 301° |
| 2026-05-07 00:55 | 45.14607 | -74.72911 | 4394 ft | 105 kts | 302° |
| 2026-05-07 00:55 | 45.15016 | -74.73756 | 4395 ft | 103 kts | 303° |
| 2026-05-07 00:55 | 45.15399 | -74.74582 | 4437 ft | 99 kts | 300° |
| 2026-05-07 00:55 | 45.15755 | -74.75422 | 4466 ft | 98 kts | 301° |
| 2026-05-07 00:56 | 45.16133 | -74.76211 | 4528 ft | 96 kts | 303° |
| 2026-05-07 00:56 | 45.16522 | -74.76990 | 4562 ft | 98 kts | 304° |
| 2026-05-07 00:56 | 45.16918 | -74.77766 | 4619 ft | 97 kts | 303° |
| 2026-05-07 00:56 | 45.17310 | -74.78554 | 4646 ft | 98 kts | 303° |
| 2026-05-07 00:57 | 45.17703 | -74.79380 | 4604 ft | 104 kts | 302° |
| 2026-05-07 00:57 | 45.18080 | -74.80245 | 4640 ft | 100 kts | 298° |
| 2026-05-07 00:57 | 45.18436 | -74.81123 | 4602 ft | 105 kts | 300° |
| 2026-05-07 00:57 | 45.18823 | -74.82000 | 4559 ft | 105 kts | 301° |
| 2026-05-07 00:58 | 45.19222 | -74.82875 | 4510 ft | 105 kts | 301° |
| 2026-05-07 00:58 | 45.19580 | -74.83774 | 4461 ft | 105 kts | 295° |
| 2026-05-07 00:58 | 45.19939 | -74.84679 | 4405 ft | 105 kts | 299° |
| 2026-05-07 00:58 | 45.20305 | -74.85545 | 4428 ft | 100 kts | 300° |
| 2026-05-07 00:59 | 45.21262 | -74.87073 | 4342 ft | 101 kts | 303° |
| 2026-05-07 00:59 | 45.21660 | -74.87891 | 4357 ft | 100 kts | 301° |
| 2026-05-07 00:59 | 45.22037 | -74.88696 | 4426 ft | 96 kts | 301° |
| 2026-05-07 01:00 | 45.22407 | -74.89482 | 4484 ft | 95 kts | 299° |
| 2026-05-07 01:00 | 45.22764 | -74.90263 | 4521 ft | 95 kts | 300° |
| 2026-05-07 01:00 | 45.23132 | -74.91070 | 4513 ft | 100 kts | 301° |
| 2026-05-07 01:00 | 45.23479 | -74.91904 | 4551 ft | 99 kts | 299° |
| 2026-05-07 01:01 | 45.23855 | -74.92741 | 4541 ft | 101 kts | 300° |
| 2026-05-07 01:01 | 45.24228 | -74.93581 | 4567 ft | 100 kts | 300° |
| 2026-05-07 01:01 | 45.24594 | -74.94422 | 4578 ft | 100 kts | 300° |
| 2026-05-07 01:01 | 45.24950 | -74.95269 | 4603 ft | 100 kts | 299° |
| 2026-05-07 01:02 | 45.25310 | -74.96125 | 4576 ft | 103 kts | 299° |
| 2026-05-07 01:02 | 45.25676 | -74.96997 | 4585 ft | 102 kts | 300° |
| 2026-05-07 01:02 | 45.26053 | -74.97860 | 4576 ft | 104 kts | 301° |
| 2026-05-07 01:02 | 45.26448 | -74.98716 | 4581 ft | 103 kts | 302° |
| 2026-05-07 01:03 | 45.26844 | -74.99543 | 4627 ft | 100 kts | 301° |
| 2026-05-07 01:03 | 45.27222 | -75.00394 | 4584 ft | 105 kts | 300° |
| 2026-05-07 01:03 | 45.27624 | -75.01268 | 4572 ft | 104 kts | 302° |
| 2026-05-07 01:03 | 45.28026 | -75.02108 | 4593 ft | 102 kts | 302° |
| 2026-05-07 01:04 | 45.28413 | -75.02940 | 4619 ft | 101 kts | 302° |
| 2026-05-07 01:04 | 45.28815 | -75.03764 | 4615 ft | 102 kts | 302° |
| 2026-05-07 01:04 | 45.29198 | -75.04611 | 4599 ft | 103 kts | 297° |
| 2026-05-07 01:04 | 45.29412 | -75.05528 | 4666 ft | 98 kts | 278° |
| 2026-05-07 01:05 | 45.29575 | -75.06497 | 4599 ft | 105 kts | 289° |
| 2026-05-07 01:05 | 45.29896 | -75.07407 | 4580 ft | 104 kts | 299° |
| 2026-05-07 01:05 | 45.30283 | -75.08288 | 4540 ft | 104 kts | 301° |
| 2026-05-07 01:05 | 45.30677 | -75.09138 | 4515 ft | 103 kts | 302° |
| 2026-05-07 01:06 | 45.31074 | -75.09956 | 4515 ft | 101 kts | 303° |
| 2026-05-07 01:06 | 45.31478 | -75.10778 | 4499 ft | 102 kts | 303° |
| 2026-05-07 01:06 | 45.31886 | -75.11601 | 4489 ft | 102 kts | 303° |
| 2026-05-07 01:06 | 45.32291 | -75.12418 | 4488 ft | 101 kts | 302° |
| 2026-05-07 01:07 | 45.32690 | -75.13234 | 4489 ft | 100 kts | 302° |
| 2026-05-07 01:07 | 45.33076 | -75.14057 | 4499 ft | 99 kts | 301° |
| 2026-05-07 01:07 | 45.33463 | -75.14864 | 4504 ft | 99 kts | 301° |
| 2026-05-07 01:07 | 45.33859 | -75.15661 | 4519 ft | 99 kts | 304° |
| 2026-05-07 01:08 | 45.34280 | -75.16437 | 4530 ft | 99 kts | 303° |
| 2026-05-07 01:08 | 45.34701 | -75.17222 | 4527 ft | 101 kts | 304° |
| 2026-05-07 01:08 | 45.35129 | -75.18010 | 4539 ft | 100 kts | 304° |
| 2026-05-07 01:08 | 45.35552 | -75.18784 | 4556 ft | 99 kts | 304° |
| 2026-05-07 01:09 | 45.35953 | -75.19566 | 4590 ft | 97 kts | 299° |
| 2026-05-07 01:09 | 45.36324 | -75.20380 | 4583 ft | 99 kts | 301° |
| 2026-05-07 01:09 | 45.36721 | -75.21180 | 4575 ft | 100 kts | 302° |
| 2026-05-07 01:09 | 45.37131 | -75.21980 | 4558 ft | 101 kts | 303° |
| 2026-05-07 01:10 | 45.37546 | -75.22780 | 4551 ft | 101 kts | 303° |
| 2026-05-07 01:10 | 45.37954 | -75.23580 | 4569 ft | 99 kts | 302° |
| 2026-05-07 01:10 | 45.38376 | -75.24365 | 4562 ft | 101 kts | 307° |
| 2026-05-07 01:10 | 45.38837 | -75.25106 | 4572 ft | 100 kts | 307° |
| 2026-05-07 01:11 | 45.39302 | -75.25851 | 4570 ft | 100 kts | 307° |
| 2026-05-07 01:11 | 45.39770 | -75.26580 | 4590 ft | 100 kts | 309° |
| 2026-05-07 01:11 | 45.40266 | -75.27302 | 4541 ft | 104 kts | 310° |
| 2026-05-07 01:11 | 45.40788 | -75.28037 | 4489 ft | 106 kts | 311° |
| 2026-05-07 01:12 | 45.41301 | -75.28756 | 4517 ft | 101 kts | 310° |
| 2026-05-07 01:12 | 45.41788 | -75.29494 | 4494 ft | 103 kts | 309° |
| 2026-05-07 01:12 | 45.42279 | -75.30214 | 4512 ft | 102 kts | 310° |
| 2026-05-07 01:12 | 45.42789 | -75.30904 | 4533 ft | 101 kts | 313° |
| 2026-05-07 01:13 | 45.43320 | -75.31554 | 4561 ft | 100 kts | 314° |
| 2026-05-07 01:13 | 45.43833 | -75.32226 | 4575 ft | 100 kts | 311° |
| 2026-05-07 01:13 | 45.44314 | -75.32942 | 4580 ft | 102 kts | 308° |
| 2026-05-07 01:13 | 45.44787 | -75.33685 | 4616 ft | 100 kts | 307° |
| 2026-05-07 01:14 | 45.45254 | -75.34420 | 4653 ft | 99 kts | 308° |
| 2026-05-07 01:14 | 45.45729 | -75.35161 | 4605 ft | 105 kts | 308° |
| 2026-05-07 01:14 | 45.46222 | -75.35909 | 4466 ft | 103 kts | 309° |
| 2026-05-07 01:14 | 45.46710 | -75.36649 | 4311 ft | 101 kts | 308° |
| 2026-05-07 01:15 | 45.47195 | -75.37383 | 4140 ft | 102 kts | 309° |
| 2026-05-07 01:15 | 45.47700 | -75.38102 | 3975 ft | 104 kts | 310° |
| 2026-05-07 01:15 | 45.48231 | -75.38814 | 3781 ft | 105 kts | 310° |
| 2026-05-07 01:15 | 45.48740 | -75.39559 | 3600 ft | 104 kts | 307° |
| 2026-05-07 01:16 | 45.49249 | -75.40304 | 3422 ft | 105 kts | 309° |
| 2026-05-07 01:16 | 45.49758 | -75.41044 | 3256 ft | 104 kts | 308° |
| 2026-05-07 01:16 | 45.50252 | -75.41779 | 3084 ft | 104 kts | 308° |
| 2026-05-07 01:16 | 45.50767 | -75.42528 | 2887 ft | 104 kts | 308° |
| 2026-05-07 01:17 | 45.51273 | -75.43261 | 2661 ft | 105 kts | 307° |
| 2026-05-07 01:17 | 45.51767 | -75.44016 | 2459 ft | 104 kts | 307° |
| 2026-05-07 01:17 | 45.52275 | -75.44762 | 2232 ft | 104 kts | 307° |
| 2026-05-07 01:17 | 45.52758 | -75.45494 | 2016 ft | 97 kts | 305° |
| 2026-05-07 01:18 | 45.53180 | -75.46206 | 1806 ft | 92 kts | 302° |
| 2026-05-07 01:18 | 45.53560 | -75.46903 | 1580 ft | 87 kts | 299° |
| 2026-05-07 01:18 | 45.53809 | -75.47635 | 1401 ft | 78 kts | 275° |
| 2026-05-07 01:18 | 45.53744 | -75.48389 | 1258 ft | 76 kts | 251° |
| 2026-05-07 01:19 | 45.53564 | -75.49110 | 1167 ft | 77 kts | 250° |
| 2026-05-07 01:19 | 45.53403 | -75.49820 | 1074 ft | 74 kts | 250° |
| 2026-05-07 01:19 | 45.53265 | -75.50531 | 938 ft | 73 kts | 252° |
| 2026-05-07 01:19 | 45.53123 | -75.51241 | 808 ft | 77 kts | 253° |
| 2026-05-07 01:20 | 45.52973 | -75.51985 | 733 ft | 79 kts | 249° |
| 2026-05-07 01:20 | 45.52853 | -75.52675 | 695 ft | 64 kts | 250° |
| 2026-05-07 01:20 | 45.52748 | -75.53290 | 560 ft | 66 kts | 252° |
| 2026-05-07 01:20 | 45.52625 | -75.53940 | 441 ft | 70 kts | 259° |
| 2026-05-07 01:21 | 45.52507 | -75.54611 | 328 ft | 69 kts | 256° |
| 2026-05-07 01:21 | 45.52375 | -75.55263 | 227 ft | 67 kts | 258° |
| 2026-05-07 01:21 | 45.52273 | -75.55799 | 212 ft | 42 kts | 254° |
| 2026-05-07 01:21 | 45.52246 | -75.55949 | 208 ft | 9 kts | 267° |
| 2026-05-07 01:22 | 45.52216 | -75.56110 | 212 ft | 18 kts | 255° |
| 2026-05-07 01:22 | 45.52180 | -75.56271 | 206 ft | 10 kts | 225° |
| 2026-05-07 01:22 | 45.52131 | -75.56270 | 204 ft | 11 kts | 165° |
| 2026-05-07 01:22 | 45.52082 | -75.56250 | 211 ft | 0 kts | 162° |
| 2026-05-07 01:23 | 45.52040 | -75.56234 | 205 ft | 11 kts | 166° |
| 2026-05-07 01:23 | 45.51967 | -75.56190 | 207 ft | 13 kts | 139° |
| 2026-05-07 01:24 | 45.51937 | -75.56070 | 199 ft | 12 kts | 95° |
| 2026-05-07 01:24 | 45.51920 | -75.55960 | 200 ft | 10 kts | 93° |
| 2026-05-07 01:24 | 45.51887 | -75.55934 | 195 ft | 0 kts | 65° |